Hill City, South Dakota
Current Conditions -  °F | °C
As of 9:53 PM on Saturday 20 Dec 2014 (Local Time) from KCUT Reporting Station
Few Clouds Few Clouds  
Wind Chill: 26°   Ceiling: Unl
Heat Index: 31°   Visibility: 10mi
Dew Point: 23°   Wind: 5mph
Humidity: 72%   Direction: 230°SW
Pressure: 29.79"   Gusts: NA
Location:  43.93°N, 103.58°W
Report Text: KCUT 210453Z AUTO 23004KT 10SM FEW120 M01/M05 A2979 RMK AO2 SLP101 T10061050
Loading
Personal Weather Stations






























Interactive Weather Map New forecast layout! Learn more

10-Day Weather Forecast

Advertisements
Track Severe Weather on mobile